Time;durP1;ratioP1;P1;durP2;ratioP2;P2;SDS_P1;SDS_P2;PMS_P1;PMS_P2;Temp;Humidity;BMP_temperature;BMP_pressure;BME280_temperature;BME280_humidity;BME280_pressure;Samples;Min_cycle;Max_cycle;Signal;HPM_P1;HPM_P2
2022/11/20 00:01:22;;;;;;;37.47;14.57;;;;;;;-3.18;100.00;98533.75;4252444;33;20182;-69
2022/11/20 00:03:51;;;;;;;43.35;15.32;;;;;;;-3.55;100.00;98506.31;4252425;33;20130;-70
2022/11/20 00:06:19;;;;;;;48.17;18.77;;;;;;;-3.13;100.00;98531.44;4252113;33;20053;-70
2022/11/20 00:08:46;;;;;;;34.67;15.70;;;;;;;-3.16;100.00;98531.78;4249821;33;20045;-68
2022/11/20 00:11:14;;;;;;;40.30;16.02;;;;;;;-3.51;100.00;98499.69;4253092;33;20087;-70
2022/11/20 00:13:41;;;;;;;39.92;16.55;;;;;;;-3.20;100.00;98546.28;4255014;33;20097;-69
2022/11/20 00:16:10;;;;;;;45.55;15.75;;;;;;;-3.12;100.00;98540.97;4255147;33;20038;-69
2022/11/20 00:18:37;;;;;;;33.75;13.95;;;;;;;-3.06;100.00;98532.38;4255470;33;20105;-69
2022/11/20 00:21:05;;;;;;;28.12;11.07;;;;;;;-3.55;100.00;98498.44;4251816;33;20054;-70
2022/11/20 00:23:32;;;;;;;26.17;11.02;;;;;;;-3.55;100.00;98495.78;4257874;33;20402;-70
2022/11/20 00:26:06;;;;;;;40.58;16.45;;;;;;;-2.99;100.00;98533.31;4256233;33;20075;-69
2022/11/20 00:28:33;;;;;;;40.03;16.08;;;;;;;-2.95;100.00;98513.53;4256584;33;20466;-69
2022/11/20 00:31:08;;;;;;;34.80;14.50;;;;;;;-3.03;100.00;98521.50;4253984;33;20473;-69
2022/11/20 00:33:35;;;;;;;33.03;14.87;;;;;;;-3.06;100.00;98519.22;4256286;33;20050;-70
2022/11/20 00:36:10;;;;;;;33.60;15.07;;;;;;;-3.08;100.00;98523.81;4238589;33;20126;-69
2022/11/20 00:38:37;;;;;;;41.42;19.45;;;;;;;-2.97;100.00;98523.44;4239744;33;20096;-69
2022/11/20 00:41:08;;;;;;;36.40;13.80;;;;;;;-3.39;100.00;98485.16;4237722;33;20038;-70
2022/11/20 00:43:36;;;;;;;37.95;14.73;;;;;;;-2.96;100.00;98517.16;4239434;33;20412;-69
2022/11/20 00:46:09;;;;;;;42.45;17.70;;;;;;;-3.13;100.00;98511.19;4239392;33;20056;-69
2022/11/20 00:48:35;;;;;;;46.92;18.15;;;;;;;-3.03;100.00;98516.22;4239417;33;20384;-68
2022/11/20 00:51:02;;;;;;;47.00;18.50;;;;;;;-3.03;100.00;98521.50;4236721;33;20046;-69
2022/11/20 00:53:28;;;;;;;47.58;19.02;;;;;;;-2.60;100.00;98521.84;4239126;33;20211;-70
2022/11/20 00:55:57;;;;;;;39.67;15.57;;;;;;;-2.76;100.00;98485.91;4237594;33;20361;-70
2022/11/20 00:58:28;;;;;;;37.70;15.65;;;;;;;-2.87;100.00;98525.00;4239222;33;20124;-70
2022/11/20 03:02:16;;;;;;;48.80;18.30;;;;;;;-2.75;100.00;98497.25;4362962;27;20116;-69
2022/11/20 03:04:43;;;;;;;42.97;16.55;;;;;;;-2.54;100.00;98487.84;4282814;33;20390;-69
2022/11/20 03:07:09;;;;;;;43.92;17.05;;;;;;;-2.93;100.00;98442.22;4281927;33;20067;-69
2022/11/20 03:09:36;;;;;;;48.53;19.48;;;;;;;-2.52;100.00;98488.47;4282216;33;20053;-70
2022/11/20 03:12:02;;;;;;;46.45;16.87;;;;;;;-2.54;100.00;98487.84;4281006;33;20046;-68
2022/11/20 03:14:29;;;;;;;52.38;19.52;;;;;;;-2.58;100.00;98490.84;4281316;33;20067;-69
2022/11/20 03:16:55;;;;;;;51.85;18.80;;;;;;;-2.74;100.00;98446.19;4282224;33;20198;-69
2022/11/20 03:19:23;;;;;;;42.67;15.98;;;;;;;-2.63;100.00;98453.66;4280754;33;20045;-69
2022/11/20 03:21:56;;;;;;;41.28;17.45;;;;;;;-2.60;100.00;98492.84;4280313;33;20094;-68
2022/11/20 03:24:23;;;;;;;40.72;16.70;;;;;;;-2.65;100.00;98450.41;4251415;33;20038;-69
2022/11/20 03:26:49;;;;;;;47.90;18.05;;;;;;;-2.56;100.00;98480.94;4251485;33;20060;-69
2022/11/20 03:29:15;;;;;;;43.87;18.02;;;;;;;-2.46;100.00;98493.03;4250954;33;20076;-68
2022/11/20 03:31:42;;;;;;;56.85;19.98;;;;;;;-2.59;100.00;98486.56;4250118;33;20072;-69
2022/11/20 03:34:10;;;;;;;43.38;15.95;;;;;;;-2.50;100.00;98483.87;4234114;33;20085;-70
2022/11/20 03:36:38;;;;;;;45.10;17.65;;;;;;;-2.56;100.00;98488.84;4235783;33;20034;-70
2022/11/20 03:39:05;;;;;;;46.83;17.75;;;;;;;-2.69;100.00;98486.00;4220780;33;20470;-70
2022/11/20 03:41:36;;;;;;;54.47;19.65;;;;;;;-2.97;100.00;98457.59;4208863;34;20030;-68
2022/11/20 03:44:05;;;;;;;40.63;18.00;;;;;;;-2.76;100.00;98490.31;4194892;34;20496;-70
2022/11/20 03:46:32;;;;;;;43.95;17.83;;;;;;;-2.76;100.00;98495.59;4195302;34;20054;-69
2022/11/20 03:48:59;;;;;;;50.00;20.37;;;;;;;-2.72;100.00;98496.91;4195365;34;20086;-69
2022/11/20 03:51:30;;;;;;;52.80;19.65;;;;;;;-2.80;100.00;98500.41;4195751;34;20087;-69
2022/11/20 03:53:59;;;;;;;49.13;19.52;;;;;;;-2.71;100.00;98498.53;4207411;34;20381;-69
2022/11/20 03:56:28;;;;;;;50.88;17.70;;;;;;;-2.73;100.00;98497.88;4209294;34;20482;-69
2022/11/20 03:58:55;;;;;;;52.92;18.12;;;;;;;-2.89;100.00;98492.75;4208957;34;20471;-69
2022/11/20 04:01:28;;;;;;;40.03;18.02;;;;;;;-2.93;100.00;98492.28;4215286;33;20038;-69
2022/11/20 04:03:56;;;;;;;53.40;20.23;;;;;;;-3.02;100.00;98493.34;4207416;34;20039;-69
2022/11/20 04:06:27;;;;;;;46.78;18.35;;;;;;;-3.05;100.00;98491.87;4208488;34;20080;-69
2022/11/20 04:08:55;;;;;;;51.15;20.10;;;;;;;-2.99;100.00;98483.25;4209035;34;20064;-69
2022/11/20 04:11:25;;;;;;;48.40;20.17;;;;;;;-2.98;100.00;98469.09;4221254;34;20043;-69
2022/11/20 04:13:53;;;;;;;52.67;20.75;;;;;;;-3.07;100.00;98480.69;4207318;34;20043;-69
2022/11/20 04:16:21;;;;;;;57.13;25.15;;;;;;;-3.17;100.00;98477.47;4218913;34;20043;-70
2022/11/20 04:19:01;;;;;;;42.50;17.10;;;;;;;-3.51;100.00;98439.16;4223116;34;20085;-70
2022/11/20 04:21:28;;;;;;;60.78;21.20;;;;;;;-3.15;100.00;98480.75;4222451;34;20079;-70
2022/11/20 04:23:55;;;;;;;39.88;15.50;;;;;;;-3.36;100.00;98449.78;4221170;34;20035;-69
2022/11/20 04:26:23;;;;;;;45.40;18.55;;;;;;;-3.38;100.00;98475.44;4222566;34;20076;-70
2022/11/20 04:28:50;;;;;;;45.15;17.60;;;;;;;-3.39;100.00;98432.53;4213475;34;20479;-71
2022/11/20 04:31:21;;;;;;;50.75;19.58;;;;;;;-3.01;100.00;98472.09;4208944;34;20099;-70
2022/11/20 04:33:48;;;;;;;45.88;18.37;;;;;;;-3.24;100.00;98443.09;4207228;34;20554;-70
2022/11/20 04:36:20;;;;;;;39.67;16.00;;;;;;;-3.25;100.00;98474.91;4222726;34;21451;-70
2022/11/20 04:38:51;;;;;;;44.55;18.90;;;;;;;-3.30;100.00;98478.06;4221560;34;20066;-71
2022/11/20 04:41:19;;;;;;;37.13;15.52;;;;;;;-2.92;100.00;98471.03;4222752;34;20529;-70
2022/11/20 04:43:51;;;;;;;48.87;18.17;;;;;;;-3.11;100.00;98460.97;4220599;34;20072;-69
2022/11/20 04:46:19;;;;;;;43.55;17.00;;;;;;;-3.65;100.00;98428.41;4222453;33;20051;-70
2022/11/20 04:48:46;;;;;;;52.45;19.58;;;;;;;-3.20;100.00;98465.47;4222753;34;20483;-70
2022/11/20 04:51:12;;;;;;;44.97;20.30;;;;;;;-3.21;100.00;98468.28;4238764;33;20030;-70
2022/11/20 04:53:40;;;;;;;46.97;17.85;;;;;;;-3.43;100.00;98457.56;4263826;33;20042;-69
2022/11/20 04:56:08;;;;;;;53.58;21.62;;;;;;;-3.59;100.00;98465.53;4265222;33;20512;-70
2022/11/20 04:58:35;;;;;;;50.55;20.55;;;;;;;-3.82;100.00;98426.84;4267775;33;20046;-70
2022/11/20 05:01:11;;;;;;;45.63;19.60;;;;;;;-3.68;100.00;98459.50;4266967;33;20045;-70
2022/11/20 05:03:39;;;;;;;51.75;19.60;;;;;;;-3.66;100.00;98453.06;4266301;33;20166;-68
2022/11/20 05:06:06;;;;;;;55.00;20.42;;;;;;;-3.83;100.00;98443.59;4267165;33;20058;-70
2022/11/20 05:08:33;;;;;;;49.35;19.73;;;;;;;-3.87;100.00;98451.03;4267195;33;20500;-69
2022/11/20 05:11:01;;;;;;;64.47;24.52;;;;;;;-3.73;100.00;98457.38;4267314;33;20030;-69
2022/11/20 05:13:28;;;;;;;53.25;22.30;;;;;;;-4.25;100.00;98407.97;4267554;33;20529;-69
2022/11/20 05:15:54;;;;;;;60.40;21.98;;;;;;;-4.22;100.00;98462.84;4279622;33;20038;-69
2022/11/20 05:18:21;;;;;;;64.60;30.17;;;;;;;-4.48;100.00;98457.78;4259604;33;20470;-69
2022/11/20 05:20:55;;;;;;;54.55;20.95;;;;;;;-5.06;100.00;98425.50;4237321;33;20041;-69
2022/11/20 05:23:21;;;;;;;58.85;27.27;;;;;;;-4.68;100.00;98470.47;4238239;33;20068;-68
2022/11/20 05:25:48;;;;;;;51.67;19.75;;;;;;;-5.06;100.00;98464.91;4237706;33;20096;-70
2022/11/20 05:28:14;;;;;;;54.28;20.65;;;;;;;-5.05;100.00;98406.16;4238992;33;20426;-69
2022/11/20 05:30:40;;;;;;;44.08;18.08;;;;;;;-5.00;100.00;98469.50;4239076;33;20026;-70
2022/11/20 05:33:07;;;;;;;58.33;19.65;;;;;;;-4.88;100.00;98477.84;4238854;33;20045;-70
2022/11/20 05:35:33;;;;;;;65.87;24.45;;;;;;;-4.70;100.00;98475.09;4236844;33;20080;-69
2022/11/20 05:38:00;;;;;;;67.10;24.65;;;;;;;-4.87;100.00;98434.88;4238245;33;20068;-70
2022/11/20 05:40:26;;;;;;;54.78;21.45;;;;;;;-4.98;100.00;98436.00;4238812;33;20104;-70
2022/11/20 05:42:53;;;;;;;66.45;27.98;;;;;;;-5.08;100.00;98466.88;4238809;33;20080;-70
2022/11/20 05:45:19;;;;;;;66.30;23.80;;;;;;;-5.09;100.00;98465.22;4238553;33;20034;-70
2022/11/20 05:47:46;;;;;;;71.68;28.52;;;;;;;-5.24;100.00;98455.38;4236425;33;20042;-68
2022/11/20 05:50:14;;;;;;;51.63;20.92;;;;;;;-5.51;100.00;98417.94;4238369;33;20938;-70
2022/11/20 05:52:40;;;;;;;44.25;18.17;;;;;;;-5.55;100.00;98461.22;4251792;33;20056;-69
2022/11/20 05:55:07;;;;;;;56.22;19.37;;;;;;;-5.33;100.00;98469.44;4224788;33;20051;-69
2022/11/20 05:57:34;;;;;;;62.42;22.08;;;;;;;-5.11;100.00;98455.69;4224724;33;20042;-70
2022/11/20 06:00:01;;;;;;;56.45;23.48;;;;;;;-5.60;100.00;98402.34;4222715;33;20068;-69
2022/11/20 06:02:34;;;;;;;64.93;25.15;;;;;;;-5.31;100.00;98457.00;4222455;33;20053;-69
2022/11/20 06:05:01;;;;;;;68.53;25.65;;;;;;;-5.31;100.00;98422.91;4224607;33;20065;-70
2022/11/20 06:07:27;;;;;;;68.80;24.83;;;;;;;-4.94;100.00;98459.16;4223510;33;20080;-71
2022/11/20 06:09:53;;;;;;;50.25;19.15;;;;;;;-5.17;100.00;98416.16;4227494;33;20058;-69
2022/11/20 06:12:20;;;;;;;76.40;28.15;;;;;;;-5.50;100.00;98416.97;4238213;33;20051;-70
2022/11/20 06:14:46;;;;;;;58.35;22.85;;;;;;;-5.14;100.00;98450.78;4238651;33;20043;-70
2022/11/20 06:17:13;;;;;;;62.92;23.50;;;;;;;-5.35;100.00;98446.00;4236740;33;20076;-68
2022/11/20 06:19:39;;;;;;;71.07;28.02;;;;;;;-5.14;100.00;98452.56;4236894;33;20042;-68
2022/11/20 06:22:06;;;;;;;55.35;23.27;;;;;;;-5.18;100.00;98456.53;4237591;33;20047;-70
2022/11/20 06:24:32;;;;;;;58.67;23.73;;;;;;;-5.16;100.00;98463.25;4237914;33;20057;-69
2022/11/20 06:26:59;;;;;;;65.12;24.83;;;;;;;-5.02;100.00;98455.72;4249497;33;20101;-70
2022/11/20 06:29:25;;;;;;;60.42;24.50;;;;;;;-5.06;100.00;98428.12;4251912;33;20357;-69
2022/11/20 06:31:52;;;;;;;64.10;23.58;;;;;;;-4.63;100.00;98460.28;4235079;33;20064;-68
2022/11/20 06:34:18;;;;;;;70.00;27.42;;;;;;;-4.76;100.00;98464.22;4237637;33;20445;-69
2022/11/20 06:36:45;;;;;;;75.90;28.08;;;;;;;-5.08;100.00;98424.88;4237399;33;20072;-68
2022/11/20 06:39:11;;;;;;;68.20;27.23;;;;;;;-5.03;100.00;98461.94;4232780;33;20035;-68
2022/11/20 06:41:38;;;;;;;78.20;29.60;;;;;;;-5.31;100.00;98422.91;4233306;33;20034;-69
2022/11/20 06:44:05;;;;;;;66.43;26.45;;;;;;;-5.01;100.00;98467.84;4231142;33;20064;-68
2022/11/20 06:46:32;;;;;;;62.60;24.65;;;;;;;-5.06;100.00;98460.44;4236955;33;20027;-69
2022/11/20 06:48:58;;;;;;;67.50;26.62;;;;;;;-5.18;100.00;98431.09;4236838;33;20026;-68
2022/11/20 06:51:25;;;;;;;71.18;27.45;;;;;;;-5.02;100.00;98451.28;4237120;33;20113;-71
2022/11/20 06:53:51;;;;;;;70.53;27.15;;;;;;;-4.95;100.00;98425.19;4237500;33;20026;-70
2022/11/20 06:56:17;;;;;;;66.10;21.58;;;;;;;-4.72;100.00;98453.37;4236090;33;20050;-69
2022/11/20 06:58:44;;;;;;;64.35;24.02;;;;;;;-4.80;100.00;98444.53;4249262;33;20062;-70
2022/11/20 07:01:13;;;;;;;62.95;23.52;;;;;;;-4.47;100.00;98457.62;4251184;33;20045;-69
2022/11/20 07:03:40;;;;;;;61.88;26.83;;;;;;;-4.43;100.00;98451.06;4276136;33;20089;-70
2022/11/20 07:06:08;;;;;;;60.90;22.83;;;;;;;-4.15;100.00;98442.75;4277499;33;20165;-70
2022/11/20 07:08:35;;;;;;;58.95;23.77;;;;;;;-4.36;100.00;98445.94;4266293;33;20393;-69
2022/11/20 07:11:04;;;;;;;73.25;27.30;;;;;;;-3.99;100.00;98441.06;4271038;33;20748;-70
2022/11/20 07:13:31;;;;;;;75.20;24.37;;;;;;;-3.87;100.00;98434.44;4268809;33;20083;-69
2022/11/20 07:16:03;;;;;;;58.45;20.95;;;;;;;-4.09;100.00;98402.63;4269927;33;20046;-70
2022/11/20 07:18:29;;;;;;;61.92;21.90;;;;;;;-3.83;100.00;98441.81;4265901;33;20114;-69
2022/11/20 07:21:00;;;;;;;60.60;22.83;;;;;;;-3.94;100.00;98397.50;4267264;33;20099;-71
2022/11/20 07:23:26;;;;;;;72.68;23.90;;;;;;;-3.66;100.00;98437.28;4271247;33;20045;-70
2022/11/20 07:25:53;;;;;;;62.22;23.90;;;;;;;-3.40;100.00;98436.13;4272379;33;20050;-70
2022/11/20 07:28:19;;;;;;;50.28;19.58;;;;;;;-3.21;100.00;98431.41;4274210;33;20064;-70
2022/11/20 07:30:52;;;;;;;56.25;22.77;;;;;;;-3.37;100.00;98432.34;4249749;33;20065;-70
2022/11/20 07:33:19;;;;;;;61.35;22.58;;;;;;;-3.15;100.00;98433.34;4250872;33;20038;-70
2022/11/20 07:35:46;;;;;;;51.83;23.33;;;;;;;-3.26;100.00;98441.66;4237177;33;20377;-70
2022/11/20 07:38:12;;;;;;;63.55;25.77;;;;;;;-3.25;100.00;98428.31;4194252;34;20047;-70
2022/11/20 07:40:39;;;;;;;52.42;22.67;;;;;;;-3.16;100.00;98390.41;4193761;34;20091;-70
2022/11/20 07:43:05;;;;;;;46.90;20.65;;;;;;;-3.05;100.00;98385.69;4194993;34;20055;-70
2022/11/20 07:45:32;;;;;;;52.70;22.33;;;;;;;-2.70;100.00;98426.38;4195327;34;20382;-71
2022/11/20 07:47:58;;;;;;;48.65;21.10;;;;;;;-2.85;100.00;98412.38;4196277;34;20091;-71
2022/11/20 07:50:25;;;;;;;46.00;18.52;;;;;;;-2.88;100.00;98389.00;4195614;34;20395;-69
2022/11/20 07:52:52;;;;;;;51.22;20.88;;;;;;;-2.89;100.00;98430.31;4193807;34;20077;-73
2022/11/20 07:55:19;;;;;;;54.88;21.33;;;;;;;-2.45;100.00;98423.50;4182414;34;20085;-73
2022/11/20 07:57:45;;;;;;;34.55;14.38;;;;;;;-2.97;100.00;98340.84;4182236;34;20040;-73
2022/11/20 08:00:12;;;;;;;53.17;22.33;;;;;;;-2.69;100.00;98421.94;4182376;34;20051;-73
2022/11/20 08:02:40;;;;;;;45.63;20.05;;;;;;;-2.59;100.00;98420.66;4205869;34;20065;-73
2022/11/20 08:05:09;;;;;;;53.15;21.40;;;;;;;-2.51;100.00;98411.84;4221511;34;20177;-73
2022/11/20 08:07:40;;;;;;;52.72;20.37;;;;;;;-2.42;100.00;98380.97;4223341;34;20055;-72
2022/11/20 08:10:08;;;;;;;48.53;19.70;;;;;;;-2.36;100.00;98374.97;4246728;33;20049;-73
2022/11/20 08:15:20;;;;;;;51.55;21.25;;;;;;;-2.49;100.00;98364.22;4249131;33;20094;-73
2022/11/20 08:17:47;;;;;;;48.70;19.35;;;;;;;-2.27;100.00;98405.50;4251245;33;20030;-73
2022/11/20 08:20:13;;;;;;;60.70;21.27;;;;;;;-2.27;100.00;98389.66;4250119;33;20052;-73
2022/11/20 08:22:40;;;;;;;45.95;20.95;;;;;;;-2.21;100.00;98383.66;4250387;33;20111;-71
2022/11/20 08:25:07;;;;;;;66.05;26.02;;;;;;;-2.04;100.00;98378.22;4235556;33;20046;-72
2022/11/20 08:27:33;;;;;;;57.58;21.98;;;;;;;-2.02;100.00;98389.38;4238079;33;20430;-71
2022/11/20 08:30:00;;;;;;;56.78;20.52;;;;;;;-2.08;100.00;98350.56;4236939;33;20047;-71
2022/11/20 08:32:26;;;;;;;43.80;17.30;;;;;;;-1.90;100.00;98385.28;4239503;33;20038;-73
2022/11/20 08:34:53;;;;;;;71.15;23.05;;;;;;;-2.13;100.00;98389.88;4240230;33;20496;-72
2022/11/20 08:37:19;;;;;;;55.72;21.52;;;;;;;-1.90;100.00;98390.56;4237429;33;20476;-72
2022/11/20 08:39:46;;;;;;;60.53;21.70;;;;;;;-1.93;100.00;98390.09;4239935;33;20054;-72
2022/11/20 08:42:12;;;;;;;48.08;19.27;;;;;;;-2.04;100.00;98367.66;4238799;33;20085;-72
2022/11/20 08:44:39;;;;;;;55.42;19.83;;;;;;;-1.81;100.00;98382.53;4226508;34;20046;-74
2022/11/20 08:47:05;;;;;;;95.43;36.95;;;;;;;-1.62;100.00;98384.56;4226703;34;20039;-73
2022/11/20 08:49:38;;;;;;;49.00;19.08;;;;;;;-1.57;100.00;98384.81;4223932;34;20051;-71
2022/11/20 08:52:05;;;;;;;46.90;19.90;;;;;;;-1.68;100.00;98383.47;4226037;34;20279;-70
2022/11/20 08:54:31;;;;;;;52.72;19.12;;;;;;;-1.58;100.00;98385.84;4225841;34;20052;-71
2022/11/20 08:56:58;;;;;;;44.03;17.65;;;;;;;-1.56;100.00;98381.19;4237850;33;20053;-72
2022/11/20 08:59:25;;;;;;;43.87;18.30;;;;;;;-1.69;100.00;98376.56;4251229;33;20046;-69
2022/11/20 09:01:52;;;;;;;44.33;19.02;;;;;;;-1.69;100.00;98383.66;4231133;33;20038;-73
2022/11/20 09:04:19;;;;;;;50.67;19.10;;;;;;;-1.88;100.00;98334.97;4232022;33;20064;-72
2022/11/20 09:06:46;;;;;;;44.17;17.87;;;;;;;-1.47;100.00;98385.34;4232693;33;20032;-72
2022/11/20 09:09:12;;;;;;;48.38;20.05;;;;;;;-1.51;100.00;98376.16;4225643;33;20083;-70
2022/11/20 09:11:38;;;;;;;44.03;16.27;;;;;;;-1.54;100.00;98321.06;4221942;34;20042;-71
2022/11/20 09:14:05;;;;;;;55.97;18.42;;;;;;;-1.42;100.00;98354.87;4211989;34;20076;-72
2022/11/20 09:16:32;;;;;;;43.63;15.98;;;;;;;-1.41;100.00;98357.34;4225125;33;20042;-72
2022/11/20 09:18:58;;;;;;;39.58;15.88;;;;;;;-1.44;100.00;98367.47;4223151;34;20365;-72
2022/11/20 09:21:25;;;;;;;45.60;17.00;;;;;;;-1.39;100.00;98365.06;4224729;34;20035;-73
2022/11/20 09:23:51;;;;;;;45.92;18.25;;;;;;;-1.57;100.00;98331.19;4223618;34;20046;-71
2022/11/20 09:26:19;;;;;;;39.42;16.48;;;;;;;-1.15;100.00;98362.06;4224527;34;20030;-73
2022/11/20 09:28:45;;;;;;;43.10;16.75;;;;;;;-1.15;100.00;98358.59;4225438;34;20080;-74
2022/11/20 09:31:22;;;;;;;41.78;17.12;;;;;;;-1.18;100.00;98357.16;4225550;34;20061;-74
2022/11/20 09:33:49;;;;;;;42.03;16.60;;;;;;;-0.80;100.00;98348.91;4208219;34;20104;-73
2022/11/20 09:36:18;;;;;;;43.08;18.27;;;;;;;-1.14;100.00;98320.59;4184470;34;20070;-73
2022/11/20 09:38:45;;;;;;;39.15;15.60;;;;;;;-1.10;100.00;98337.72;4192229;34;20059;-74
2022/11/20 09:41:41;;;;;;;39.17;16.42;;;;;;;-1.14;100.00;98321.41;4217721;34;20043;-73
2022/11/20 09:44:31;;;;;;;38.63;15.55;;;;;;;-0.64;100.00;98341.66;4214437;34;20311;-72
2022/11/20 09:47:16;;;;;;;41.33;16.20;;;;;;;-0.51;100.00;98340.94;4217575;34;20063;-71
2022/11/20 09:50:07;;;;;;;46.92;16.80;;;;;;;-0.52;100.00;98355.19;4200783;34;20332;-73
2022/11/20 09:53:12;;;;;;;40.30;16.37;;;;;;;-0.18;100.00;98346.37;4208514;34;20080;-72
2022/11/20 09:55:39;;;;;;;44.00;13.45;;;;;;;-0.48;100.00;98336.09;4167997;34;20068;-71
2022/11/20 09:58:12;;;;;;;50.55;17.77;;;;;;;-0.88;100.00;98306.75;4211480;34;20460;-71
2022/11/20 10:00:39;;;;;;;47.42;18.33;;;;;;;-0.07;100.00;98342.38;4223447;34;20499;-72
2022/11/20 10:03:16;;;;;;;37.70;15.55;;;;;;;-0.13;100.00;98328.06;4223154;34;20177;-72
2022/11/20 10:05:49;;;;;;;28.33;12.00;;;;;;;0.00;100.00;98337.94;4207081;34;20376;-71
2022/11/20 10:08:29;;;;;;;30.45;13.68;;;;;;;-0.21;99.68;98333.53;4197338;34;20119;-72
2022/11/20 10:11:14;;;;;;;42.50;15.23;;;;;;;0.04;99.02;98338.34;4205345;34;20057;-72
2022/11/20 10:13:41;;;;;;;35.00;13.15;;;;;;;0.38;98.48;98328.62;4224802;34;20173;-72
2022/11/20 10:16:33;;;;;;;41.90;16.42;;;;;;;0.18;97.71;98332.06;4225083;34;20051;-73
2022/11/20 10:19:25;;;;;;;36.33;14.93;;;;;;;0.55;99.39;98327.25;4211523;34;20456;-71
2022/11/20 10:21:54;;;;;;;35.38;16.00;;;;;;;0.50;97.03;98295.25;4219000;34;20035;-73
2022/11/20 10:24:43;;;;;;;43.20;16.25;;;;;;;0.60;95.86;98298.31;4223198;34;20088;-72
2022/11/20 10:27:43;;;;;;;37.40;16.37;;;;;;;0.68;94.71;98332.53;4224547;34;20304;-72
2022/11/20 10:30:13;;;;;;;40.50;13.50;;;;;;;0.97;95.42;98322.56;4195469;34;20116;-72
2022/11/20 10:32:50;;;;;;;34.05;11.85;;;;;;;0.83;87.09;98320.94;4196341;34;20571;-72
2022/11/20 10:35:35;;;;;;;27.02;12.18;;;;;;;0.45;85.17;98325.00;4205617;34;20043;-72
2022/11/20 10:38:13;;;;;;;32.15;12.52;;;;;;;0.79;83.87;98327.66;4221718;34;20125;-72
2022/11/20 10:40:44;;;;;;;31.92;12.55;;;;;;;0.70;81.29;98327.88;4222512;34;20093;-72
2022/11/20 10:43:34;;;;;;;30.37;12.13;;;;;;;0.87;80.15;98322.97;4221869;34;20050;-71
2022/11/20 10:46:08;;;;;;;28.17;12.75;;;;;;;1.31;81.09;98312.75;4208246;34;20051;-74
2022/11/20 10:48:36;;;;;;;26.95;10.75;;;;;;;1.27;80.13;98306.22;4222902;34;20145;-71
2022/11/20 10:51:30;;;;;;;32.90;10.15;;;;;;;0.75;76.21;98276.09;4221379;34;20803;-70
2022/11/20 10:54:21;;;;;;;23.23;10.90;;;;;;;0.84;73.90;98274.88;4223328;33;20064;-71
2022/11/20 10:56:52;;;;;;;31.33;12.70;;;;;;;1.51;78.96;98296.75;4205713;34;20061;-73
2022/11/20 10:59:34;;;;;;;27.90;12.23;;;;;;;1.79;72.81;98271.75;4196646;34;20142;-72
2022/11/20 11:02:01;;;;;;;28.55;11.45;;;;;;;1.60;69.85;98306.12;4222783;33;20054;-71
2022/11/20 11:04:28;;;;;;;27.95;14.07;;;;;;;1.98;67.04;98291.28;4238200;33;20047;-73
2022/11/20 11:07:17;;;;;;;27.73;12.40;;;;;;;1.85;65.51;98302.78;4238361;33;20080;-73
2022/11/20 11:09:53;;;;;;;34.80;14.00;;;;;;;1.25;70.16;98290.50;4229515;33;20051;-71
2022/11/20 11:12:21;;;;;;;42.10;15.88;;;;;;;1.80;70.06;98300.75;4238682;33;20076;-73
2022/11/20 11:14:50;;;;;;;32.65;15.60;;;;;;;1.23;72.23;98297.84;4238324;33;20141;-72
2022/11/20 11:17:27;;;;;;;34.80;14.65;;;;;;;0.85;74.40;98265.91;4238446;33;20372;-73
2022/11/20 11:20:01;;;;;;;18.02;9.57;;;;;;;1.35;75.99;98260.09;4237001;33;20051;-73
2022/11/20 11:22:30;;;;;;;31.02;13.88;;;;;;;0.67;67.38;98255.91;4238027;33;20039;-72
2022/11/20 11:24:58;;;;;;;25.23;12.77;;;;;;;1.23;70.94;98279.28;4238323;33;20046;-73
2022/11/20 11:27:24;;;;;;;27.95;12.05;;;;;;;1.18;67.85;98286.22;4237777;33;20429;-72
2022/11/20 11:30:02;;;;;;;24.63;11.82;;;;;;;1.13;69.37;98246.25;4237385;33;20051;-73
2022/11/20 11:32:28;;;;;;;31.73;12.68;;;;;;;1.34;67.70;98284.97;4242188;33;20420;-73
2022/11/20 11:35:00;;;;;;;30.30;14.00;;;;;;;1.25;69.55;98271.13;4254587;33;20049;-73
2022/11/20 11:37:33;;;;;;;26.90;12.50;;;;;;;1.22;71.20;98255.63;4251921;33;20401;-73
2022/11/20 11:40:01;;;;;;;26.58;13.60;;;;;;;1.64;69.83;98272.00;4238416;33;20105;-71
2022/11/20 11:42:28;;;;;;;30.48;13.43;;;;;;;1.29;67.03;98240.50;4238506;33;20402;-72
2022/11/20 11:45:07;;;;;;;27.05;10.30;;;;;;;1.31;66.18;98272.94;4236592;33;20031;-71
2022/11/20 11:47:45;;;;;;;21.98;9.68;;;;;;;1.02;65.38;98267.09;4210023;34;20375;-72
2022/11/20 11:50:11;;;;;;;22.05;10.75;;;;;;;1.14;61.78;98232.00;4220908;33;20493;-73
2022/11/20 11:52:56;;;;;;;23.15;11.55;;;;;;;1.16;61.69;98267.06;4227077;33;20532;-74
2022/11/20 11:55:31;;;;;;;37.33;13.13;;;;;;;1.43;63.48;98273.91;4230068;33;20051;-73
2022/11/20 11:58:20;;;;;;;31.02;12.30;;;;;;;1.53;66.62;98267.34;4229736;33;20054;-72
2022/11/20 12:03:27;;;;;;;21.70;11.55;;;;;;;1.89;67.13;98268.66;4229269;33;20064;-71
2022/11/20 12:06:20;;;;;;;29.08;12.75;;;;;;;1.69;64.17;98260.75;4219133;34;20046;-72
2022/11/20 12:09:03;;;;;;;35.22;13.30;;;;;;;2.07;64.02;98258.09;4221494;33;20151;-73
2022/11/20 12:11:58;;;;;;;29.67;14.23;;;;;;;2.43;63.21;98251.34;4222936;34;20539;-73
2022/11/20 12:14:35;;;;;;;29.02;12.52;;;;;;;2.17;61.79;98258.47;4217100;34;20136;-72
2022/11/20 12:17:02;;;;;;;29.30;13.75;;;;;;;1.98;59.82;98222.25;4210459;34;20051;-73
2022/11/20 12:19:34;;;;;;;27.62;12.07;;;;;;;1.27;67.04;98211.53;4235378;33;20044;-73
2022/11/20 12:22:23;;;;;;;31.62;13.10;;;;;;;2.01;63.60;98253.69;4231852;33;20052;-73
2022/11/20 12:25:04;;;;;;;30.50;12.73;;;;;;;2.23;61.99;98218.78;4229207;33;20055;-73
2022/11/20 12:27:45;;;;;;;31.48;13.80;;;;;;;2.79;59.96;98244.50;4235760;33;20047;-73
2022/11/20 12:30:15;;;;;;;34.00;15.10;;;;;;;2.93;58.23;98241.72;4233874;33;20050;-73
2022/11/20 12:32:50;;;;;;;31.67;15.95;;;;;;;3.62;59.75;98234.41;4235797;33;20055;-73
2022/11/20 12:35:35;;;;;;;31.12;14.87;;;;;;;3.01;58.53;98230.81;4234993;33;20089;-74
2022/11/20 12:38:29;;;;;;;32.00;15.65;;;;;;;2.20;63.44;98237.81;4247930;33;20772;-73
2022/11/20 12:47:14;;;;;;;38.13;15.70;;;;;;;1.81;65.19;98219.25;4241356;33;20074;-73
2022/11/20 12:50:10;;;;;;;33.13;15.90;;;;;;;1.40;70.99;98221.28;4242891;33;20099;-72
2022/11/20 12:53:03;;;;;;;35.55;15.95;;;;;;;1.38;72.03;98180.91;4246277;33;20389;-73
2022/11/20 12:55:55;;;;;;;30.95;14.60;;;;;;;1.61;73.08;98206.91;4253451;33;20045;-73
2022/11/20 12:58:27;;;;;;;35.65;14.87;;;;;;;1.43;74.91;98189.03;4225433;34;20416;-73
2022/11/20 13:01:00;;;;;;;;;;;;;;;1.74;73.68;98206.03;4223896;34;20043;-73
2022/11/20 13:03:47;;;;;;;39.78;18.77;;;;;;;1.54;75.08;98194.72;4223752;34;20033;-72
2022/11/20 13:06:21;;;;;;;32.30;14.55;;;;;;;1.47;79.33;98196.56;4222054;34;20081;-73
2022/11/20 13:08:56;;;;;;;33.17;14.70;;;;;;;1.81;76.45;98201.50;4220337;34;20120;-73
2022/11/20 13:11:37;;;;;;;39.35;16.58;;;;;;;0.98;81.47;98165.13;4223209;34;20389;-72
2022/11/20 13:14:19;;;;;;;43.87;18.27;;;;;;;1.29;82.42;98187.44;4223849;34;20035;-73
2022/11/20 13:17:28;;;;;;;46.78;21.67;;;;;;;1.69;86.97;98192.59;4209253;34;20125;-73
2022/11/20 13:19:58;;;;;;;38.25;16.67;;;;;;;1.24;90.23;98179.31;4182746;34;20064;-73
2022/11/20 13:22:41;;;;;;;43.10;18.15;;;;;;;1.31;90.94;98184.59;4209222;34;20048;-73
2022/11/20 13:25:29;;;;;;;45.97;18.98;;;;;;;1.11;91.21;98174.06;4206708;34;20091;-71
2022/11/20 13:27:58;;;;;;;39.22;17.23;;;;;;;0.96;94.38;98180.44;4200527;34;20492;-73
2022/11/20 13:30:27;;;;;;;43.85;18.25;;;;;;;0.99;95.03;98176.53;4217448;34;20465;-73
2022/11/20 13:32:57;;;;;;;45.75;18.27;;;;;;;0.95;96.56;98173.50;4223858;34;20031;-74
2022/11/20 13:35:35;;;;;;;41.90;16.40;;;;;;;0.80;96.50;98167.62;4192926;34;20449;-73
2022/11/20 13:38:13;;;;;;;43.95;19.42;;;;;;;0.91;94.37;98137.84;4195245;34;20062;-72
2022/11/20 13:40:53;;;;;;;38.63;18.60;;;;;;;1.24;95.64;98168.72;4196667;34;20035;-73
2022/11/20 13:43:39;;;;;;;41.37;19.92;;;;;;;0.97;97.27;98144.13;4196248;34;20121;-72
2022/11/20 13:46:08;;;;;;;51.28;19.67;;;;;;;0.97;99.20;98158.19;4195533;34;20236;-73